Time;durP1;ratioP1;P1;durP2;ratioP2;P2;SDS_P1;SDS_P2;PMS_P1;PMS_P2;Temp;Humidity;BMP_temperature;BMP_pressure;BME280_temperature;BME280_humidity;BME280_pressure;Samples;Min_cycle;Max_cycle;Signal;HPM_P1;HPM_P2
2023/04/30 00:01:47;;;;;;;3.25;1.50;;;;;;;19.48;56.02;97072.78;10510961;28;20413;-48
2023/04/30 00:07:07;;;;;;;2.15;1.38;;;;;;;19.48;55.86;97075.47;10495300;28;20132;-48
2023/04/30 00:12:26;;;;;;;2.08;1.40;;;;;;;19.47;55.87;97071.19;10482078;28;20110;-46
2023/04/30 00:17:46;;;;;;;1.50;1.40;;;;;;;19.46;55.75;97074.19;10510180;28;20037;-47
2023/04/30 00:23:05;;;;;;;2.28;1.40;;;;;;;19.45;55.95;97073.41;10496877;28;20118;-48
2023/04/30 00:28:24;;;;;;;1.40;1.30;;;;;;;19.45;55.99;97070.69;10509949;28;20397;-46
2023/04/30 00:33:44;;;;;;;2.35;1.73;;;;;;;19.45;55.86;97072.63;10505662;28;20535;-47
2023/04/30 00:39:04;;;;;;;1.40;1.30;;;;;;;19.44;55.76;97065.59;10509465;28;20041;-47
2023/04/30 00:44:24;;;;;;;2.15;1.58;;;;;;;19.43;55.72;97074.84;10509471;28;20488;-47
2023/04/30 00:49:44;;;;;;;1.50;1.40;;;;;;;19.41;55.59;97075.16;10509282;28;20823;-47
2023/04/30 00:55:04;;;;;;;1.50;1.40;;;;;;;19.41;55.64;97077.84;10493956;28;20048;-45
2023/04/30 01:00:24;;;;;;;1.65;1.45;;;;;;;19.39;55.40;97071.97;10495702;28;20071;-47
2023/04/30 01:05:43;;;;;;;1.50;1.40;;;;;;;19.40;55.52;97080.84;10508712;28;20036;-50
2023/04/30 01:11:16;;;;;;;1.52;1.42;;;;;;;19.39;55.49;97077.38;10508938;28;20045;-46
2023/04/30 01:16:42;;;;;;;1.60;1.30;;;;;;;19.37;55.50;97082.28;10510867;28;20036;-45
2023/04/30 01:22:03;;;;;;;1.90;1.58;;;;;;;19.37;55.46;97082.28;10488227;28;20485;-46
2023/04/30 01:27:46;;;;;;;1.50;1.40;;;;;;;19.36;55.47;97086.88;10501979;28;20048;-49
2023/04/30 01:33:06;;;;;;;1.60;1.40;;;;;;;19.35;55.50;97081.81;10499856;28;20463;-47
2023/04/30 01:38:44;;;;;;;2.25;1.85;;;;;;;19.35;55.33;97085.31;10488180;28;20113;-46
2023/04/30 01:44:13;;;;;;;1.65;1.50;;;;;;;19.35;55.98;97089.91;10502924;28;20061;-46
2023/04/30 01:49:46;;;;;;;;;;;;;;;19.34;56.27;97097.22;10516827;28;20051;-47
2023/04/30 01:55:32;;;;;;;1.73;1.63;;;;;;;19.33;56.09;97090.22;10502621;28;19924;-47
2023/04/30 02:00:52;;;;;;;2.42;1.10;;;;;;;19.33;56.25;97102.94;10500422;28;20044;-46
2023/04/30 02:06:12;;;;;;;1.13;1.05;;;;;;;19.32;56.43;97102.13;10500555;28;20400;-47
2023/04/30 02:11:32;;;;;;;15.73;5.68;;;;;;;19.11;50.24;97114.63;10515201;28;20048;-48
2023/04/30 02:16:51;;;;;;;7.57;3.97;;;;;;;19.04;51.13;97117.00;10486561;28;20053;-47
2023/04/30 02:22:11;;;;;;;5.05;2.53;;;;;;;19.12;53.54;97121.63;10514785;28;20048;-48
2023/04/30 02:27:31;;;;;;;5.68;2.80;;;;;;;19.16;53.75;97136.09;10501382;28;20048;-47
2023/04/30 02:32:51;;;;;;;6.22;2.90;;;;;;;19.18;53.68;97139.28;10513396;28;20048;-47
2023/04/30 02:38:11;;;;;;;5.32;2.90;;;;;;;19.20;53.68;97147.09;10514149;28;20090;-47
2023/04/30 02:43:30;;;;;;;6.75;3.35;;;;;;;19.20;53.72;97138.97;10514009;28;20045;-46
2023/04/30 02:48:50;;;;;;;6.72;3.10;;;;;;;19.20;53.62;97144.38;10513785;28;20052;-49
2023/04/30 02:54:09;;;;;;;5.22;2.95;;;;;;;19.18;53.80;97144.69;10513684;28;20094;-49
2023/04/30 02:59:29;;;;;;;8.95;3.90;;;;;;;19.17;53.73;97149.31;10513263;28;20040;-47
2023/04/30 03:04:49;;;;;;;6.80;3.40;;;;;;;19.19;53.79;97151.69;10513299;28;20044;-49
2023/04/30 03:10:09;;;;;;;7.95;3.33;;;;;;;19.17;53.91;97153.91;10497921;28;20059;-47
2023/04/30 03:15:31;;;;;;;6.30;3.40;;;;;;;19.16;53.79;97153.09;10512986;28;20045;-46
2023/04/30 03:20:51;;;;;;;6.25;3.40;;;;;;;19.16;53.92;97158.50;10498799;28;20040;-46
2023/04/30 03:26:10;;;;;;;5.60;3.00;;;;;;;19.16;53.95;97163.13;10512538;28;20048;-49
2023/04/30 03:31:30;;;;;;;6.50;3.30;;;;;;;19.13;53.85;97169.94;10512166;28;20041;-47
2023/04/30 03:36:49;;;;;;;6.10;3.00;;;;;;;19.14;53.82;97176.13;10500013;28;20048;-49
2023/04/30 03:42:08;;;;;;;5.07;2.90;;;;;;;19.13;54.00;97171.81;10496184;28;20071;-47
2023/04/30 03:47:28;;;;;;;6.05;3.20;;;;;;;19.11;53.92;97174.84;10511678;28;20048;-49
2023/04/30 03:52:47;;;;;;;5.55;3.05;;;;;;;19.12;53.96;97176.44;10511412;28;20048;-50
2023/04/30 03:58:08;;;;;;;6.45;3.08;;;;;;;19.11;53.92;97187.53;10496147;28;20048;-47
2023/04/30 04:03:28;;;;;;;4.70;2.88;;;;;;;19.11;53.97;97188.38;10495927;28;20044;-49
2023/04/30 04:08:48;;;;;;;4.53;3.10;;;;;;;19.09;53.91;97185.19;10495800;28;20048;-46
2023/04/30 04:14:08;;;;;;;6.10;2.97;;;;;;;19.09;53.98;97187.06;10510535;28;20040;-46
2023/04/30 04:19:27;;;;;;;3.97;2.60;;;;;;;19.07;53.99;97192.78;10496971;28;20211;-49
2023/04/30 04:24:46;;;;;;;5.07;2.58;;;;;;;19.08;54.04;97199.00;10495140;28;20044;-49
2023/04/30 04:30:12;;;;;;;5.40;2.90;;;;;;;19.06;53.90;97204.69;10494933;28;20044;-48
2023/04/30 04:35:32;;;;;;;5.43;3.10;;;;;;;19.06;53.93;97204.69;10486277;28;20049;-48
2023/04/30 04:40:53;;;;;;;5.80;2.75;;;;;;;19.06;54.31;97223.59;10509330;28;20036;-48
2023/04/30 04:59:29;;;;;;;4.90;3.13;;;;;;;19.06;54.75;97228.19;10491217;28;20053;-92
2023/04/30 05:04:49;;;;;;;4.43;2.55;;;;;;;19.05;55.14;97234.69;10483722;28;20133;-93
2023/04/30 05:10:11;;;;;;;7.00;3.13;;;;;;;19.05;55.32;97232.81;10483709;28;20044;-92
2023/04/30 05:15:31;;;;;;;5.40;3.05;;;;;;;19.04;55.34;97236.59;10484387;28;20051;-92
2023/04/30 05:20:51;;;;;;;6.75;3.42;;;;;;;19.04;55.53;97242.00;10484276;28;20083;-93
2023/04/30 05:26:14;;;;;;;4.05;2.53;;;;;;;19.04;55.44;97252.03;10483627;28;20102;-93
2023/04/30 05:31:35;;;;;;;3.13;2.17;;;;;;;19.03;55.45;97253.91;10469612;28;20056;-93
2023/04/30 05:36:55;;;;;;;5.55;2.53;;;;;;;19.04;55.46;97254.72;10411687;28;20496;-93
2023/04/30 05:42:15;;;;;;;4.78;2.58;;;;;;;19.04;55.58;97263.63;10466686;28;20052;-93
2023/04/30 05:47:35;;;;;;;2.25;1.77;;;;;;;19.04;55.69;97268.22;10443112;28;20045;-93
2023/04/30 05:52:54;;;;;;;3.53;2.30;;;;;;;19.05;56.07;97273.31;10456037;28;20423;-93
2023/04/30 05:58:14;;;;;;;4.32;2.47;;;;;;;19.06;55.87;97263.31;10428572;28;20053;-93
2023/04/30 06:03:34;;;;;;;3.13;1.95;;;;;;;19.05;55.68;97262.53;10431222;28;20079;-92
2023/04/30 06:08:54;;;;;;;2.30;1.70;;;;;;;19.06;55.73;97266.78;10449722;28;20106;-93
2023/04/30 06:14:14;;;;;;;2.38;1.67;;;;;;;19.08;55.48;97271.91;10451472;28;20056;-93
2023/04/30 06:19:33;;;;;;;7.38;5.80;;;;;;;18.85;48.31;97271.13;10435461;28;20068;-92
2023/04/30 06:24:53;;;;;;;8.32;6.28;;;;;;;18.42;46.14;97261.56;10432381;28;20064;-92
2023/04/30 06:30:13;;;;;;;7.13;6.43;;;;;;;18.21;45.24;97276.59;10449021;28;20072;-93
2023/04/30 06:35:33;;;;;;;7.22;6.43;;;;;;;18.09;44.68;97269.03;10462527;28;20466;-92
2023/04/30 06:40:53;;;;;;;6.60;5.95;;;;;;;17.91;44.48;97278.88;10417970;28;20052;-93
2023/04/30 06:46:13;;;;;;;6.75;5.97;;;;;;;17.91;44.28;97271.56;10461374;28;20068;-93
2023/04/30 06:51:34;;;;;;;12.77;6.57;;;;;;;17.91;43.99;97282.34;10449220;28;20195;-93
2023/04/30 06:56:54;;;;;;;9.30;6.78;;;;;;;17.91;44.35;97286.94;10447677;28;20451;-93
2023/04/30 07:02:13;;;;;;;9.20;6.85;;;;;;;17.90;44.10;97278.06;10462538;28;20045;-92
2023/04/30 07:07:33;;;;;;;5.57;3.40;;;;;;;18.05;46.19;97276.94;10435203;28;20140;-93
2023/04/30 07:12:53;;;;;;;4.38;3.55;;;;;;;18.29;47.17;97282.09;10445484;28;20507;-92
2023/04/30 07:18:12;;;;;;;6.15;3.55;;;;;;;18.45;47.68;97282.53;10459318;28;20497;-90
2023/04/30 07:23:32;;;;;;;7.68;3.60;;;;;;;18.56;48.08;97285.78;10445696;28;20080;-90
2023/04/30 07:28:52;;;;;;;7.38;3.45;;;;;;;18.64;48.59;97284.28;10445570;28;20124;-91
2023/04/30 07:34:12;;;;;;;4.07;3.03;;;;;;;18.71;49.05;97282.75;10434317;28;20060;-91
2023/04/30 07:39:31;;;;;;;6.93;3.05;;;;;;;18.76;49.20;97284.53;10440185;28;20131;-91
2023/04/30 07:44:51;;;;;;;5.53;3.10;;;;;;;18.84;49.78;97280.34;10444899;28;20049;-91
2023/04/30 07:50:11;;;;;;;5.18;3.17;;;;;;;18.88;50.33;97281.31;10476006;28;20056;-84
2023/04/30 07:55:31;;;;;;;5.28;3.45;;;;;;;18.92;50.56;97277.69;10484060;28;20060;-84
2023/04/30 08:00:51;;;;;;;6.28;3.17;;;;;;;18.97;50.62;97290.25;10488929;28;20056;-84
2023/04/30 08:06:10;;;;;;;5.57;3.05;;;;;;;19.00;50.82;97289.63;10458921;28;20144;-84
2023/04/30 08:11:30;;;;;;;4.05;2.85;;;;;;;19.04;51.16;97296.00;10446791;28;20064;-94
2023/04/30 08:16:50;;;;;;;42.75;30.85;;;;;;;19.09;51.48;97303.19;10433158;28;20072;-92
2023/04/30 08:22:09;;;;;;;24.13;14.55;;;;;;;19.11;52.33;97296.38;10447030;28;20483;-91
2023/04/30 08:27:30;;;;;;;13.93;10.18;;;;;;;19.17;52.47;97299.75;10453752;28;20063;-92
2023/04/30 08:32:50;;;;;;;12.82;9.07;;;;;;;19.22;52.60;97290.72;10480906;28;20091;-90
2023/04/30 08:38:10;;;;;;;12.65;8.45;;;;;;;19.24;52.59;97300.09;10482573;28;20064;-91
2023/04/30 08:43:30;;;;;;;11.07;8.25;;;;;;;19.28;52.75;97294.88;10485955;28;20068;-85
2023/04/30 08:48:49;;;;;;;13.38;8.00;;;;;;;19.31;53.05;97302.38;10469852;28;20484;-85
2023/04/30 08:54:11;;;;;;;13.43;7.65;;;;;;;19.33;52.84;97298.25;10439669;28;20044;-85
2023/04/30 08:59:33;;;;;;;11.82;7.97;;;;;;;19.36;52.91;97299.53;10469091;28;20415;-85
2023/04/30 09:04:53;;;;;;;10.48;7.53;;;;;;;19.40;53.01;97302.41;10482996;28;20051;-85
2023/04/30 09:10:21;;;;;;;10.88;6.95;;;;;;;19.43;52.96;97296.38;10468554;28;20101;-86
2023/04/30 09:15:42;;;;;;;7.53;5.88;;;;;;;19.46;52.97;97307.34;10444973;28;20060;-93
2023/04/30 09:21:02;;;;;;;10.00;6.43;;;;;;;19.49;53.07;97311.34;10468588;28;20055;-93
2023/04/30 09:26:26;;;;;;;9.98;6.72;;;;;;;19.50;53.07;97316.47;10483762;28;20060;-93
2023/04/30 09:31:46;;;;;;;8.95;6.40;;;;;;;19.52;53.29;97316.94;10485007;28;20059;-93
2023/04/30 09:37:06;;;;;;;8.82;6.00;;;;;;;19.55;53.27;97315.50;10444586;28;20049;-93
2023/04/30 09:42:26;;;;;;;8.55;6.15;;;;;;;19.59;52.73;97313.00;10442821;28;20040;-92
2023/04/30 09:47:45;;;;;;;7.47;5.88;;;;;;;19.61;53.35;97311.56;10470450;28;20045;-93
2023/04/30 09:53:09;;;;;;;8.82;5.68;;;;;;;19.63;53.22;97312.03;10483176;28;20053;-93
2023/04/30 09:58:30;;;;;;;7.97;5.78;;;;;;;19.67;53.11;97317.63;10478486;28;20080;-93
2023/04/30 10:03:51;;;;;;;7.68;5.70;;;;;;;19.71;53.39;97315.88;10476189;28;20053;-85
2023/04/30 10:09:14;;;;;;;6.45;4.90;;;;;;;19.74;53.09;97313.41;10488903;28;20052;-85
2023/04/30 10:14:34;;;;;;;7.40;5.30;;;;;;;19.78;52.99;97312.75;10489607;28;20064;-82
2023/04/30 10:20:04;;;;;;;7.78;5.25;;;;;;;19.79;53.12;97312.44;10489366;28;20087;-83
2023/04/30 10:25:25;;;;;;;5.50;4.78;;;;;;;19.79;48.89;97298.94;10507125;28;20049;-83
2023/04/30 10:30:45;;;;;;;6.45;4.72;;;;;;;19.75;51.47;97298.75;10484824;28;20504;-83
2023/04/30 10:36:08;;;;;;;5.85;4.30;;;;;;;19.78;51.73;97286.53;10497443;28;20095;-83
2023/04/30 10:41:28;;;;;;;6.43;4.90;;;;;;;19.81;51.73;97280.47;10448329;28;20053;-84
2023/04/30 10:47:10;;;;;;;5.28;4.35;;;;;;;19.82;51.46;97282.09;10484716;28;20124;-86
2023/04/30 10:52:44;;;;;;;7.80;4.60;;;;;;;19.83;51.88;97277.47;10447678;28;20049;-86
2023/04/30 10:58:22;;;;;;;7.45;4.65;;;;;;;19.85;52.11;97281.44;10428718;28;20058;-86
2023/04/30 11:04:02;;;;;;;5.97;4.38;;;;;;;19.86;52.04;97283.06;10431819;28;20496;-86
2023/04/30 11:09:48;;;;;;;5.03;4.32;;;;;;;19.88;52.24;97288.94;10459291;28;20044;-85
2023/04/30 11:15:13;;;;;;;4.55;4.03;;;;;;;19.89;52.23;97284.31;10431384;28;20051;-86
2023/04/30 11:20:38;;;;;;;4.95;4.18;;;;;;;19.89;52.27;97287.03;10450363;28;20182;-94
2023/04/30 11:26:00;;;;;;;4.43;3.53;;;;;;;19.88;52.39;97286.25;10488584;28;20075;-92
2023/04/30 11:31:20;;;;;;;6.90;4.00;;;;;;;19.89;52.57;97287.03;10476096;28;20059;-92
2023/04/30 11:36:40;;;;;;;4.60;3.80;;;;;;;19.89;52.55;97277.00;10460136;28;20055;-94
2023/04/30 11:42:01;;;;;;;5.15;3.70;;;;;;;19.90;52.55;97273.19;10487747;28;20074;-94
2023/04/30 11:47:21;;;;;;;5.18;3.72;;;;;;;19.91;52.57;97263.97;10487694;28;20094;-94
2023/04/30 11:52:42;;;;;;;4.60;3.70;;;;;;;19.93;52.65;97267.19;10448886;28;20056;-95
2023/04/30 11:58:03;;;;;;;5.40;4.10;;;;;;;19.92;52.66;97264.78;10431970;28;20075;-92
2023/04/30 12:03:23;;;;;;;4.38;3.50;;;;;;;19.92;52.69;97272.91;10469624;28;20048;-93
2023/04/30 12:08:43;;;;;;;5.45;3.58;;;;;;;19.93;52.72;97272.59;10458676;28;20060;-94
2023/04/30 12:14:09;;;;;;;4.38;3.75;;;;;;;19.94;52.77;97267.97;10454726;28;20048;-93
2023/04/30 12:19:29;;;;;;;4.22;3.45;;;;;;;19.95;52.88;97274.94;10441736;28;20106;-94
2023/04/30 12:24:52;;;;;;;5.30;3.70;;;;;;;19.95;52.87;97269.53;10502430;28;20538;-93
2023/04/30 12:30:12;;;;;;;6.00;3.83;;;;;;;19.94;52.90;97268.75;10456683;28;20178;-93
2023/04/30 12:35:32;;;;;;;3.88;3.40;;;;;;;19.97;52.80;97270.03;10469228;28;20561;-94
2023/04/30 12:40:52;;;;;;;4.68;3.63;;;;;;;19.98;53.11;97263.50;10456968;28;20106;-95
2023/04/30 12:46:25;;;;;;;3.97;3.50;;;;;;;19.99;52.86;97261.59;10462012;28;20551;-93
2023/04/30 12:51:46;;;;;;;4.30;3.60;;;;;;;19.97;48.34;97253.00;10460879;28;20064;-93
2023/04/30 12:57:11;;;;;;;4.85;3.63;;;;;;;19.92;50.85;97251.25;10500916;28;20420;-91
2023/04/30 13:02:31;;;;;;;4.15;3.20;;;;;;;19.92;50.97;97238.53;10449781;28;20489;-93
2023/04/30 13:07:54;;;;;;;6.13;3.53;;;;;;;19.94;51.11;97238.22;10448906;28;20073;-92
2023/04/30 13:13:16;;;;;;;4.15;3.63;;;;;;;19.96;51.10;97222.47;10418973;28;20073;-93
2023/04/30 13:18:36;;;;;;;6.35;3.30;;;;;;;19.98;51.35;97224.88;10426353;28;20049;-92
2023/04/30 13:23:56;;;;;;;4.97;3.47;;;;;;;19.98;51.66;97219.47;10456758;28;20051;-93
2023/04/30 13:29:16;;;;;;;3.58;3.03;;;;;;;19.99;51.76;97218.34;10467669;28;20473;-92
2023/04/30 13:34:36;;;;;;;3.65;3.03;;;;;;;20.00;51.69;97209.13;10475503;28;20120;-94
2023/04/30 13:39:56;;;;;;;3.67;3.15;;;;;;;19.99;51.72;97213.72;10481597;28;20063;-93
2023/04/30 13:45:17;;;;;;;4.43;3.33;;;;;;;20.02;51.86;97207.69;10517274;28;20040;-94
2023/04/30 13:50:37;;;;;;;3.30;3.00;;;;;;;20.02;51.99;97193.38;10519977;28;20047;-91
2023/04/30 13:55:58;;;;;;;3.70;3.03;;;;;;;20.01;51.94;97210.69;10514592;28;20049;-92
2023/04/30 14:01:17;;;;;;;3.65;2.90;;;;;;;19.98;52.10;97208.66;10488231;28;20049;-92
2023/04/30 14:06:38;;;;;;;3.63;3.10;;;;;;;19.99;52.32;97204.81;10459403;28;20140;-93
2023/04/30 14:11:58;;;;;;;4.13;3.10;;;;;;;20.01;52.24;97194.47;10444039;28;20055;-92
2023/04/30 14:17:18;;;;;;;4.18;2.80;;;;;;;20.02;52.33;97198.78;10428680;28;20092;-93
2023/04/30 14:22:37;;;;;;;3.83;2.88;;;;;;;20.01;52.49;97199.88;10442162;28;20095;-92
2023/04/30 14:27:57;;;;;;;4.63;2.63;;;;;;;20.01;52.53;97189.84;10449182;28;20045;-92
2023/04/30 14:33:17;;;;;;;3.60;2.92;;;;;;;20.01;52.41;97183.66;10449482;28;20044;-84
2023/04/30 14:38:36;;;;;;;3.25;2.90;;;;;;;20.01;52.18;97181.75;10432785;28;20053;-93
2023/04/30 14:43:56;;;;;;;3.10;2.75;;;;;;;20.02;52.71;97174.44;10447791;28;20456;-92
2023/04/30 14:49:15;;;;;;;3.13;2.83;;;;;;;20.05;52.32;97180.03;10462170;28;20048;-92
2023/04/30 14:54:35;;;;;;;4.13;2.63;;;;;;;20.07;52.01;97168.84;10446093;28;20041;-93
2023/04/30 14:59:56;;;;;;;5.45;2.72;;;;;;;20.10;52.24;97168.22;10448367;28;20100;-93
2023/04/30 15:05:16;;;;;;;2.92;2.58;;;;;;;20.12;51.94;97163.28;10418355;28;20061;-94
2023/04/30 15:10:40;;;;;;;3.00;2.50;;;;;;;20.15;51.81;97171.56;10465171;28;20072;-94
2023/04/30 15:16:21;;;;;;;2.97;2.67;;;;;;;20.18;51.75;97166.63;10440140;28;20132;-93
2023/04/30 15:21:41;;;;;;;2.80;2.50;;;;;;;20.17;51.80;97165.84;10461182;28;20075;-95
2023/04/30 15:27:01;;;;;;;2.80;2.58;;;;;;;20.18;51.94;97169.34;10446561;28;20056;-85
2023/04/30 15:32:21;;;;;;;2.20;2.00;;;;;;;20.21;51.50;97169.50;10445308;28;20056;-84
2023/04/30 15:37:41;;;;;;;2.90;2.50;;;;;;;20.25;51.38;97170.47;10416715;28;20106;-84
2023/04/30 15:43:01;;;;;;;2.55;2.35;;;;;;;20.26;51.29;97169.31;10438747;28;20105;-93
2023/04/30 15:48:21;;;;;;;2.20;2.00;;;;;;;20.27;51.31;97168.22;10448203;28;20543;-93
2023/04/30 15:53:41;;;;;;;2.65;2.20;;;;;;;20.29;51.23;97167.91;10462307;28;20052;-93
2023/04/30 15:59:00;;;;;;;2.75;2.38;;;;;;;20.28;51.20;97161.69;10416069;28;20082;-92
2023/04/30 16:04:20;;;;;;;2.45;2.25;;;;;;;20.28;51.06;97163.59;10446554;28;20060;-92
2023/04/30 16:09:44;;;;;;;2.13;1.92;;;;;;;20.27;51.05;97148.50;10415790;28;20067;-84
2023/04/30 16:15:05;;;;;;;3.10;2.15;;;;;;;20.26;50.88;97144.97;10458367;28;20049;-84
2023/04/30 16:20:26;;;;;;;2.10;1.88;;;;;;;20.27;50.92;97149.28;10444199;28;20079;-84
2023/04/30 16:25:45;;;;;;;1.38;1.27;;;;;;;20.27;50.64;97141.16;10457266;28;20106;-84
2023/04/30 16:31:05;;;;;;;1.92;1.83;;;;;;;20.28;50.70;97145.44;10429705;28;20056;-84
2023/04/30 16:36:26;;;;;;;2.20;1.98;;;;;;;20.28;50.43;97136.53;10442670;28;20056;-84
2023/04/30 16:41:47;;;;;;;1.85;1.75;;;;;;;20.28;50.60;97137.34;10457592;28;20068;-93
2023/04/30 16:47:07;;;;;;;2.15;1.95;;;;;;;20.28;50.57;97137.34;10438260;28;20065;-94
2023/04/30 16:52:32;;;;;;;2.85;1.52;;;;;;;20.28;50.60;97133.84;10433615;28;20140;-93
2023/04/30 16:58:06;;;;;;;6.72;2.38;;;;;;;20.24;46.99;97136.38;10446565;28;20060;-92
2023/04/30 17:03:26;;;;;;;3.58;2.30;;;;;;;20.07;40.75;97128.28;10430807;28;20079;-93
2023/04/30 17:08:46;;;;;;;8.13;4.80;;;;;;;19.91;39.09;97128.75;10429302;28;20049;-92
2023/04/30 17:14:06;;;;;;;5.78;3.22;;;;;;;19.77;37.59;97136.25;10413402;28;20061;-93
2023/04/30 17:19:26;;;;;;;5.00;2.92;;;;;;;19.66;37.90;97127.63;10415280;28;20143;-94
2023/04/30 17:24:46;;;;;;;4.85;3.03;;;;;;;19.70;41.09;97144.81;10446227;28;20057;-94
2023/04/30 17:30:07;;;;;;;3.80;2.80;;;;;;;19.73;41.23;97140.69;10442800;28;20071;-85
2023/04/30 17:35:30;;;;;;;5.30;3.20;;;;;;;19.79;42.31;97142.13;10428694;28;20127;-85
2023/04/30 17:40:51;;;;;;;3.80;2.63;;;;;;;19.82;42.52;97144.22;10441060;28;20080;-85
2023/04/30 17:46:10;;;;;;;3.45;2.58;;;;;;;19.84;43.07;97144.69;10441598;28;20060;-85
2023/04/30 17:51:33;;;;;;;6.00;3.05;;;;;;;19.85;43.90;97143.56;10426983;28;20049;-84
2023/04/30 17:56:53;;;;;;;2.85;2.13;;;;;;;19.87;44.01;97154.84;10433362;28;20170;-84
2023/04/30 18:02:13;;;;;;;3.30;2.63;;;;;;;19.87;44.25;97148.66;10476874;28;20086;-84
2023/04/30 18:07:32;;;;;;;4.40;2.75;;;;;;;19.89;44.75;97162.66;10448933;28;20048;-84
2023/04/30 18:12:53;;;;;;;6.32;2.97;;;;;;;19.90;45.03;97159.63;10463697;28;20102;-84
2023/04/30 18:18:14;;;;;;;3.70;2.63;;;;;;;19.91;45.76;97174.72;10471142;28;20052;-83
2023/04/30 18:23:33;;;;;;;29.13;15.32;;;;;;;19.91;46.75;97174.72;10466579;28;20037;-83
2023/04/30 18:28:54;;;;;;;23.35;15.77;;;;;;;19.91;47.48;97180.13;10513554;28;20088;-93
2023/04/30 18:34:14;;;;;;;30.00;15.98;;;;;;;19.91;47.43;97184.75;10496498;28;20056;-92
2023/04/30 18:39:34;;;;;;;23.15;13.95;;;;;;;19.91;48.02;97182.84;10451444;28;20060;-93
2023/04/30 18:44:55;;;;;;;19.17;12.73;;;;;;;19.91;48.44;97184.75;10477749;28;20451;-93
2023/04/30 18:50:16;;;;;;;24.38;14.70;;;;;;;19.90;48.52;97189.38;10435603;28;20052;-93
2023/04/30 18:55:51;;;;;;;25.65;15.15;;;;;;;19.89;48.77;97195.09;10448738;28;20542;-93
2023/04/30 19:01:11;;;;;;;22.05;14.23;;;;;;;19.90;48.99;97204.81;10448146;28;20059;-92
2023/04/30 19:06:32;;;;;;;23.42;13.60;;;;;;;19.88;49.33;97218.66;10448810;28;20493;-93
2023/04/30 19:11:52;;;;;;;19.10;12.95;;;;;;;19.89;49.51;97222.13;10463467;28;20048;-93
2023/04/30 19:17:12;;;;;;;17.90;10.52;;;;;;;19.87;49.62;97216.25;10447858;28;20456;-93
2023/04/30 19:22:40;;;;;;;20.67;12.35;;;;;;;19.87;49.70;97219.75;10446941;28;20398;-84
2023/04/30 19:28:00;;;;;;;21.20;12.10;;;;;;;19.86;49.98;97226.28;10460066;28;20037;-85
2023/04/30 19:33:21;;;;;;;19.42;11.75;;;;;;;19.87;50.11;97229.78;10431452;28;20059;-85
2023/04/30 19:38:41;;;;;;;18.45;11.00;;;;;;;19.87;50.18;97218.97;10460029;28;20053;-84
2023/04/30 19:44:00;;;;;;;17.80;10.68;;;;;;;19.87;50.20;97221.66;10459685;28;20083;-83
2023/04/30 19:49:22;;;;;;;18.98;10.40;;;;;;;19.87;50.37;97216.25;10459149;28;20103;-93
2023/04/30 19:54:47;;;;;;;19.08;10.90;;;;;;;19.86;50.57;97217.38;10432227;28;20535;-92
2023/04/30 20:00:10;;;;;;;16.02;9.38;;;;;;;19.84;50.68;97217.69;10460686;28;20052;-92
2023/04/30 20:05:35;;;;;;;15.77;9.63;;;;;;;19.84;50.82;97216.91;10461370;28;20415;-93
2023/04/30 20:11:15;;;;;;;16.27;10.18;;;;;;;19.85;50.75;97227.38;10436011;28;20059;-84
2023/04/30 20:16:53;;;;;;;16.58;9.23;;;;;;;19.85;50.92;97215.78;10448653;28;20131;-83
2023/04/30 20:22:13;;;;;;;15.05;9.90;;;;;;;19.83;50.80;97213.38;10443508;28;20065;-83
2023/04/30 20:27:35;;;;;;;15.57;8.85;;;;;;;19.82;51.00;97233.44;10442970;28;20049;-84
2023/04/30 20:32:55;;;;;;;16.23;9.73;;;;;;;19.82;51.07;97230.72;10443358;28;20049;-83
2023/04/30 20:38:15;;;;;;;14.88;8.68;;;;;;;19.81;51.09;97223.72;10456989;28;20060;-83
2023/04/30 20:43:36;;;;;;;14.82;8.77;;;;;;;19.82;51.06;97225.31;10456513;28;20057;-83
2023/04/30 20:49:01;;;;;;;8.43;5.68;;;;;;;19.80;51.46;97224.84;10442473;28;20100;-84
2023/04/30 20:54:21;;;;;;;13.95;8.55;;;;;;;19.81;51.38;97222.91;10441589;28;20045;-83
2023/04/30 20:59:40;;;;;;;14.07;8.48;;;;;;;19.81;51.43;97220.22;10412300;28;20053;-83
2023/04/30 21:05:03;;;;;;;10.05;7.13;;;;;;;19.80;51.21;97207.81;10415276;28;20048;-83
2023/04/30 21:10:22;;;;;;;11.85;8.10;;;;;;;19.80;51.14;97210.50;10427875;28;20444;-83
2023/04/30 21:15:42;;;;;;;11.80;7.88;;;;;;;19.79;51.15;97215.13;10441631;28;20060;-83
2023/04/30 21:21:05;;;;;;;11.77;7.90;;;;;;;19.79;51.23;97215.13;10458265;28;20065;-83
2023/04/30 21:26:26;;;;;;;12.88;7.80;;;;;;;19.78;51.17;97204.63;10455461;28;20127;-83
2023/04/30 21:31:46;;;;;;;10.90;7.70;;;;;;;19.78;50.92;97204.63;10427443;28;20052;-84
2023/04/30 21:37:05;;;;;;;12.35;7.53;;;;;;;19.76;51.06;97204.97;10436248;28;20061;-92
2023/04/30 21:42:28;;;;;;;12.55;7.32;;;;;;;19.74;51.12;97190.97;10450967;28;20068;-93
2023/04/30 21:47:57;;;;;;;11.27;7.68;;;;;;;19.74;51.04;97190.97;10440156;28;20073;-92
2023/04/30 21:53:19;;;;;;;12.13;7.55;;;;;;;19.73;51.05;97192.06;10437593;28;20045;-93
2023/04/30 21:58:39;;;;;;;10.52;7.03;;;;;;;19.72;50.86;97180.47;10437593;28;20071;-94
2023/04/30 22:03:59;;;;;;;13.25;7.32;;;;;;;19.71;50.93;97189.66;10465046;28;20045;-93
2023/04/30 22:09:19;;;;;;;10.85;7.50;;;;;;;19.71;50.77;97189.66;10481079;28;20094;-91
2023/04/30 22:14:39;;;;;;;12.27;7.10;;;;;;;19.71;50.83;97178.84;10486589;28;20041;-93
2023/04/30 22:19:59;;;;;;;9.30;7.00;;;;;;;19.70;51.02;97173.75;10511688;28;20072;-93
2023/04/30 22:25:19;;;;;;;9.73;6.93;;;;;;;19.68;50.81;97170.53;10422976;28;20497;-93
2023/04/30 22:30:39;;;;;;;10.57;6.88;;;;;;;19.67;50.96;97163.56;10449394;28;20060;-92
2023/04/30 22:35:59;;;;;;;10.10;6.90;;;;;;;19.66;50.94;97170.06;10462228;28;20057;-91
2023/04/30 22:41:20;;;;;;;10.40;7.07;;;;;;;19.66;50.79;97164.66;10447162;28;20489;-82
2023/04/30 22:46:41;;;;;;;10.05;7.10;;;;;;;19.64;50.69;97156.88;10461073;28;20067;-83
2023/04/30 22:52:06;;;;;;;9.05;6.53;;;;;;;19.64;50.96;97161.47;10436214;28;20155;-92
2023/04/30 22:57:25;;;;;;;10.68;7.10;;;;;;;19.64;50.87;97156.06;10400468;28;20522;-82
2023/04/30 23:02:48;;;;;;;9.23;6.80;;;;;;;19.63;51.02;97159.91;10378181;28;20069;-82
2023/04/30 23:08:11;;;;;;;8.20;6.05;;;;;;;19.62;50.88;97155.59;10391680;28;20053;-82
2023/04/30 23:13:31;;;;;;;10.25;6.82;;;;;;;19.61;51.03;97157.50;10377851;28;20050;-83
2023/04/30 23:18:50;;;;;;;8.20;6.55;;;;;;;19.62;50.70;97155.59;10391771;28;20053;-83
2023/04/30 23:24:10;;;;;;;8.75;6.38;;;;;;;19.59;50.68;97153.53;10377667;28;20050;-83
2023/04/30 23:29:30;;;;;;;8.52;6.55;;;;;;;19.60;50.79;97155.13;10378132;28;20080;-92
2023/04/30 23:34:50;;;;;;;9.10;6.35;;;;;;;19.59;50.71;97148.13;10377964;28;20060;-92
2023/04/30 23:40:10;;;;;;;8.63;6.07;;;;;;;19.58;50.66;97151.94;10391785;28;20058;-92
2023/04/30 23:45:30;;;;;;;8.65;6.00;;;;;;;19.58;50.72;97150.00;10407049;28;20061;-83
2023/04/30 23:51:00;;;;;;;7.97;6.00;;;;;;;19.55;50.79;97143.34;10376842;28;20073;-83
2023/04/30 23:56:20;;;;;;;8.02;5.80;;;;;;;19.55;50.80;97137.94;10394932;28;20055;-93
